Time;durP1;ratioP1;P1;durP2;ratioP2;P2;SDS_P1;SDS_P2;PMS_P1;PMS_P2;Temp;Humidity;BMP_temperature;BMP_pressure;BME280_temperature;BME280_humidity;BME280_pressure;Samples;Min_cycle;Max_cycle;Signal;HPM_P1;HPM_P2
2023/08/05 00:00:10;;;;;;;0.50;0.40;;;14.50;99.90;;;;;;5058184;28;20444;-80
2023/08/05 00:02:37;;;;;;;0.50;0.40;;;14.40;99.90;;;;;;5057450;28;20486;-80
2023/08/05 00:05:05;;;;;;;0.50;0.40;;;14.40;99.90;;;;;;5057636;28;20465;-80
2023/08/05 00:07:33;;;;;;;0.50;0.40;;;14.40;99.90;;;;;;5059244;28;20435;-80
2023/08/05 00:10:00;;;;;;;0.50;0.40;;;14.40;99.90;;;;;;5060857;28;20447;-80
2023/08/05 00:12:26;;;;;;;0.50;0.40;;;14.40;99.90;;;;;;5061616;28;20436;-80
2023/08/05 00:14:53;;;;;;;0.50;0.40;;;14.40;99.90;;;;;;5060569;28;20535;-80
2023/08/05 00:17:20;;;;;;;0.50;0.40;;;14.30;99.90;;;;;;5061445;28;20546;-81
2023/08/05 00:19:47;;;;;;;0.50;0.40;;;14.30;99.90;;;;;;5061673;28;20435;-80
2023/08/05 00:22:14;;;;;;;0.50;0.40;;;14.30;99.90;;;;;;5061544;28;20851;-80
2023/08/05 00:24:42;;;;;;;0.50;0.40;;;14.20;99.90;;;;;;5050705;28;20456;-80
2023/08/05 00:27:08;;;;;;;0.50;0.40;;;14.20;99.90;;;;;;5041288;28;20437;-80
2023/08/05 00:29:35;;;;;;;0.50;0.40;;;14.20;99.90;;;;;;5041272;28;20479;-80
2023/08/05 00:32:02;;;;;;;0.50;0.40;;;14.20;99.90;;;;;;5040954;28;20441;-81
2023/08/05 00:34:29;;;;;;;0.50;0.40;;;14.20;99.90;;;;;;5057612;28;20459;-80
2023/08/05 00:36:55;;;;;;;0.50;0.40;;;14.20;99.90;;;;;;5061708;28;20940;-80
2023/08/05 00:39:22;;;;;;;0.50;0.40;;;14.10;99.90;;;;;;5061446;28;20470;-80
2023/08/05 00:41:50;;;;;;;0.50;0.40;;;14.10;99.90;;;;;;5060871;28;20486;-80
2023/08/05 00:44:17;;;;;;;0.50;0.40;;;14.20;99.90;;;;;;5061552;28;20465;-80
2023/08/05 00:46:44;;;;;;;0.50;0.40;;;14.20;99.90;;;;;;5062208;28;20450;-80
2023/08/05 00:49:11;;;;;;;0.50;0.40;;;14.30;99.90;;;;;;5061741;28;20436;-81
2023/08/05 00:51:39;;;;;;;0.50;0.40;;;14.30;99.90;;;;;;5061240;28;20435;-79
2023/08/05 00:54:05;;;;;;;0.50;0.40;;;14.40;99.90;;;;;;5061728;28;20466;-80
2023/08/05 00:56:32;;;;;;;0.50;0.40;;;14.40;99.90;;;;;;5061613;28;20527;-81
2023/08/05 00:59:01;;;;;;;0.50;0.40;;;14.40;99.90;;;;;;5033329;28;20520;-80
2023/08/05 01:01:27;;;;;;;0.50;0.40;;;14.40;99.90;;;;;;5041352;28;20480;-80
2023/08/05 01:03:54;;;;;;;0.50;0.40;;;14.40;99.90;;;;;;5041269;28;20445;-80
2023/08/05 01:06:23;;;;;;;0.50;0.40;;;14.40;99.90;;;;;;5041664;28;20448;-81
2023/08/05 01:08:51;;;;;;;0.77;0.77;;;14.40;99.90;;;;;;5040733;28;20446;-79
2023/08/05 01:11:18;;;;;;;0.50;0.40;;;14.50;99.90;;;;;;5041458;28;20535;-80
2023/08/05 01:13:45;;;;;;;0.50;0.40;;;14.50;99.90;;;;;;5040798;28;20468;-78
2023/08/05 01:16:13;;;;;;;0.50;0.40;;;14.50;99.90;;;;;;5041042;28;20448;-80
2023/08/05 01:18:40;;;;;;;0.50;0.40;;;14.50;99.90;;;;;;5040533;28;20511;-80
2023/08/05 01:21:13;;;;;;;0.50;0.40;;;14.50;99.90;;;;;;5040240;28;20448;-80
2023/08/05 01:23:46;;;;;;;0.50;0.40;;;14.40;99.90;;;;;;5039807;28;20436;-80
2023/08/05 01:26:14;;;;;;;0.50;0.40;;;14.40;99.90;;;;;;5040011;28;20865;-80
2023/08/05 01:28:41;;;;;;;0.50;0.40;;;14.40;99.90;;;;;;5040844;28;20441;-80
2023/08/05 01:31:10;;;;;;;0.50;0.40;;;14.40;99.90;;;;;;5040933;28;20437;-80
2023/08/05 01:33:37;;;;;;;0.50;0.40;;;14.40;99.90;;;;;;5040294;28;20444;-80
2023/08/05 01:36:04;;;;;;;0.50;0.40;;;14.30;99.90;;;;;;5040141;28;20467;-80
2023/08/05 01:38:31;;;;;;;0.50;0.40;;;14.20;99.90;;;;;;5039931;28;20822;-80
2023/08/05 01:40:58;;;;;;;0.50;0.40;;;14.20;99.90;;;;;;5040198;28;20442;-79
2023/08/05 01:43:26;;;;;;;0.50;0.40;;;14.10;99.90;;;;;;5039723;28;20484;-81
2023/08/05 01:45:52;;;;;;;0.50;0.40;;;14.00;99.90;;;;;;5039847;28;20555;-80
2023/08/05 01:48:19;;;;;;;0.50;0.40;;;14.00;99.90;;;;;;5040197;28;20445;-80
2023/08/05 01:50:46;;;;;;;0.50;0.40;;;14.00;99.90;;;;;;5040346;28;20441;-80
2023/08/05 01:53:13;;;;;;;0.50;0.40;;;14.00;99.90;;;;;;5040017;28;20439;-80
2023/08/05 01:55:39;;;;;;;0.50;0.40;;;14.10;99.90;;;;;;5039463;28;21027;-79
2023/08/05 01:58:06;;;;;;;0.50;0.40;;;14.10;99.90;;;;;;5040057;28;20448;-80
2023/08/05 02:00:34;;;;;;;0.50;0.40;;;14.10;99.90;;;;;;5039375;28;20447;-80
2023/08/05 02:03:01;;;;;;;0.50;0.40;;;14.10;99.90;;;;;;5038714;28;20480;-80
2023/08/05 02:05:28;;;;;;;0.50;0.40;;;14.10;99.90;;;;;;5039868;28;20539;-80
2023/08/05 02:07:54;;;;;;;0.50;0.40;;;14.10;99.90;;;;;;5038904;28;20437;-80
2023/08/05 02:10:21;;;;;;;0.50;0.40;;;14.10;99.90;;;;;;5039821;28;20880;-80
2023/08/05 02:12:48;;;;;;;0.50;0.40;;;14.10;99.90;;;;;;5038578;28;20922;-80
2023/08/05 02:15:15;;;;;;;0.50;0.40;;;14.10;99.90;;;;;;5039319;28;20524;-81
2023/08/05 02:17:43;;;;;;;0.50;0.40;;;14.10;99.90;;;;;;5038635;28;20451;-79
2023/08/05 02:20:11;;;;;;;0.50;0.40;;;14.10;99.90;;;;;;5039438;28;20441;-80
2023/08/05 02:22:37;;;;;;;0.50;0.40;;;14.10;99.90;;;;;;5038994;28;20480;-81
2023/08/05 02:25:05;;;;;;;0.50;0.37;;;14.20;99.90;;;;;;5038176;28;20466;-80
2023/08/05 02:27:32;;;;;;;0.50;0.40;;;14.20;99.90;;;;;;5038406;28;20440;-80
2023/08/05 02:29:59;;;;;;;0.50;0.40;;;14.20;99.90;;;;;;5038476;28;20450;-80
2023/08/05 02:32:25;;;;;;;0.50;0.40;;;14.10;99.90;;;;;;5051988;28;20436;-81
2023/08/05 02:34:53;;;;;;;0.50;0.40;;;14.10;99.90;;;;;;5057977;28;20455;-80
2023/08/05 02:37:20;;;;;;;0.50;0.37;;;14.10;99.90;;;;;;5058508;28;20435;-79
2023/08/05 02:39:47;;;;;;;0.50;0.40;;;14.10;99.90;;;;;;5059003;28;20435;-80
2023/08/05 02:42:14;;;;;;;0.50;0.30;;;14.10;99.90;;;;;;5057982;28;21123;-80
2023/08/05 02:44:40;;;;;;;0.50;0.40;;;14.20;99.90;;;;;;5058253;28;20835;-80
2023/08/05 02:47:07;;;;;;;0.50;0.40;;;14.20;99.90;;;;;;5046905;28;20536;-79
2023/08/05 02:49:34;;;;;;;0.50;0.40;;;14.20;99.90;;;;;;5038671;28;20436;-81
2023/08/05 02:52:02;;;;;;;0.50;0.40;;;14.30;99.90;;;;;;5038229;28;20432;-80
2023/08/05 02:54:29;;;;;;;0.50;0.40;;;14.30;99.90;;;;;;5037734;28;20472;-80
2023/08/05 02:56:56;;;;;;;0.50;0.40;;;14.40;99.90;;;;;;5037524;28;20983;-80
2023/08/05 02:59:23;;;;;;;0.50;0.40;;;14.50;99.90;;;;;;5038018;28;20447;-80
2023/08/05 03:01:49;;;;;;;0.50;0.40;;;14.50;99.90;;;;;;5037174;28;20446;-80
2023/08/05 03:04:16;;;;;;;0.50;0.40;;;14.50;99.90;;;;;;5050623;28;20463;-80
2023/08/05 03:06:43;;;;;;;0.50;0.40;;;14.60;99.90;;;;;;5057602;28;20539;-80
2023/08/05 03:09:12;;;;;;;0.50;0.40;;;14.60;99.90;;;;;;5057530;28;20431;-80
2023/08/05 03:11:39;;;;;;;0.50;0.40;;;14.60;99.90;;;;;;5057908;28;20440;-79
2023/08/05 03:14:06;;;;;;;0.50;0.40;;;14.60;99.90;;;;;;5057437;28;20462;-81
2023/08/05 03:16:33;;;;;;;0.50;0.37;;;14.60;99.90;;;;;;5057853;28;20442;-80
2023/08/05 03:18:59;;;;;;;0.50;0.40;;;14.60;99.90;;;;;;5056004;28;20436;-80
2023/08/05 03:21:26;;;;;;;0.50;0.40;;;14.70;99.90;;;;;;5037914;28;20440;-80
2023/08/05 03:23:53;;;;;;;0.50;0.40;;;14.70;99.90;;;;;;5037724;28;20473;-80
2023/08/05 03:26:21;;;;;;;0.50;0.40;;;14.80;99.90;;;;;;5037566;28;20973;-80
2023/08/05 03:28:48;;;;;;;0.50;0.40;;;14.80;99.90;;;;;;5037566;28;20445;-80
2023/08/05 03:31:14;;;;;;;0.50;0.40;;;14.80;99.90;;;;;;5037544;28;20432;-81
2023/08/05 03:33:42;;;;;;;0.50;0.40;;;14.80;99.90;;;;;;5037683;28;20432;-80
2023/08/05 03:36:09;;;;;;;0.50;0.30;;;14.80;99.90;;;;;;5037394;28;20470;-80
2023/08/05 03:38:36;;;;;;;0.50;0.40;;;14.90;99.90;;;;;;5037915;28;20922;-79
2023/08/05 03:41:04;;;;;;;0.50;0.40;;;14.90;99.90;;;;;;5053551;28;20852;-80
2023/08/05 03:43:32;;;;;;;0.50;0.40;;;14.90;99.90;;;;;;5041769;28;20471;-80
2023/08/05 03:45:59;;;;;;;0.50;0.33;;;14.80;99.90;;;;;;5043288;28;20547;-80
2023/08/05 03:48:25;;;;;;;0.50;0.40;;;14.90;99.90;;;;;;5043377;28;20440;-80
2023/08/05 03:50:52;;;;;;;0.50;0.40;;;14.80;99.90;;;;;;5043110;28;20431;-80
2023/08/05 03:53:20;;;;;;;0.50;0.40;;;14.70;99.90;;;;;;5041848;28;21051;-79
2023/08/05 03:55:47;;;;;;;0.50;0.40;;;14.60;99.90;;;;;;5041240;28;20532;-81
2023/08/05 03:58:14;;;;;;;0.60;0.60;;;14.60;99.90;;;;;;5065454;28;20461;-80
2023/08/05 04:00:43;;;;;;;0.50;0.40;;;14.60;99.90;;;;;;5058783;28;20440;-79
2023/08/05 04:03:10;;;;;;;0.50;0.40;;;14.60;99.90;;;;;;5055984;28;20485;-81
2023/08/05 04:05:37;;;;;;;0.50;0.40;;;14.60;99.90;;;;;;5110041;22;20502;-82
2023/08/05 04:08:04;;;;;;;0.50;0.30;;;14.60;99.90;;;;;;5043288;28;20436;-82
2023/08/05 04:10:33;;;;;;;0.50;0.40;;;14.50;99.90;;;;;;5046350;28;20444;-82
2023/08/05 04:13:01;;;;;;;0.50;0.40;;;14.50;99.90;;;;;;5045166;28;20436;-82
2023/08/05 04:15:30;;;;;;;0.53;0.53;;;14.40;99.90;;;;;;5043112;28;20458;-78
2023/08/05 04:17:59;;;;;;;0.50;0.40;;;14.40;99.90;;;;;;5043157;28;20451;-83
2023/08/05 04:20:27;;;;;;;0.50;0.40;;;14.40;99.90;;;;;;5045858;28;20928;-82
2023/08/05 04:22:54;;;;;;;0.50;0.40;;;14.30;99.90;;;;;;5045628;28;20568;-81
2023/08/05 04:25:20;;;;;;;0.50;0.40;;;14.20;99.90;;;;;;5045944;28;20469;-83
2023/08/05 04:27:47;;;;;;;0.50;0.40;;;14.20;99.90;;;;;;5046805;28;20442;-80
2023/08/05 04:30:14;;;;;;;0.50;0.40;;;14.20;99.90;;;;;;5044180;28;20448;-80
2023/08/05 04:32:41;;;;;;;0.50;0.40;;;14.20;99.90;;;;;;5043785;28;20523;-82
2023/08/05 04:35:09;;;;;;;0.50;0.40;;;14.20;99.90;;;;;;5044415;28;20456;-83
2023/08/05 04:37:36;;;;;;;0.50;0.40;;;14.10;99.90;;;;;;5045758;28;20440;-84
2023/08/05 04:40:03;;;;;;;0.50;0.40;;;14.20;99.90;;;;;;5044482;28;20450;-82
2023/08/05 04:42:30;;;;;;;0.50;0.40;;;14.10;99.90;;;;;;5047745;28;20474;-82
2023/08/05 04:44:57;;;;;;;0.50;0.40;;;14.10;99.90;;;;;;5045117;28;20560;-81
2023/08/05 04:47:24;;;;;;;1.00;0.90;;;14.20;99.90;;;;;;5042605;28;20455;-82
2023/08/05 04:49:51;;;;;;;0.50;0.40;;;14.20;99.90;;;;;;5042366;28;20437;-83
2023/08/05 04:52:19;;;;;;;0.50;0.40;;;14.20;99.90;;;;;;5044852;28;20442;-82
2023/08/05 04:54:46;;;;;;;0.50;0.40;;;14.20;99.90;;;;;;5045613;28;20987;-82
2023/08/05 04:57:13;;;;;;;0.50;0.40;;;14.20;99.90;;;;;;5044687;28;20442;-82
2023/08/05 04:59:40;;;;;;;1.70;1.60;;;14.30;99.90;;;;;;5042585;28;20479;-82
2023/08/05 05:02:07;;;;;;;0.50;0.40;;;14.30;99.90;;;;;;5043656;28;20471;-82
2023/08/05 05:04:34;;;;;;;0.50;0.40;;;14.30;99.90;;;;;;5045553;28;20480;-82
2023/08/05 05:07:00;;;;;;;0.50;0.40;;;14.40;99.90;;;;;;5044405;28;20451;-82
2023/08/05 05:09:29;;;;;;;0.50;0.40;;;14.50;99.90;;;;;;5041793;28;20445;-79
2023/08/05 05:11:56;;;;;;;1.70;1.60;;;14.50;99.90;;;;;;5041957;28;20445;-82
2023/08/05 05:14:23;;;;;;;0.50;0.40;;;14.70;99.90;;;;;;5041490;28;20504;-81
2023/08/05 05:16:50;;;;;;;0.50;0.40;;;14.70;99.90;;;;;;5044134;28;20519;-82
2023/08/05 05:19:17;;;;;;;0.50;0.40;;;14.80;99.90;;;;;;5047299;28;20459;-82
2023/08/05 05:21:44;;;;;;;0.50;0.50;;;14.90;99.90;;;;;;5046794;28;20448;-82
2023/08/05 05:24:10;;;;;;;0.50;0.40;;;15.00;99.90;;;;;;5047720;28;20480;-83
2023/08/05 05:26:38;;;;;;;1.10;0.87;;;15.20;99.90;;;;;;5049206;28;20466;-83
2023/08/05 05:29:05;;;;;;;9.73;9.13;;;15.20;99.90;;;;;;5048482;28;20454;-83
2023/08/05 05:31:32;;;;;;;0.50;0.40;;;15.30;99.90;;;;;;5046866;28;20455;-82
2023/08/05 05:33:59;;;;;;;0.50;0.30;;;15.50;99.90;;;;;;5046097;28;20441;-83
2023/08/05 05:36:26;;;;;;;0.50;0.30;;;15.60;99.90;;;;;;5045793;28;20471;-83
2023/08/05 05:38:52;;;;;;;0.50;0.30;;;15.70;99.90;;;;;;5046185;28;20439;-81
2023/08/05 05:41:19;;;;;;;0.50;0.30;;;15.80;99.90;;;;;;5048474;28;20451;-83
2023/08/05 05:43:47;;;;;;;0.50;0.40;;;15.90;99.90;;;;;;5048931;28;20489;-83
2023/08/05 05:46:15;;;;;;;0.50;0.37;;;15.70;99.90;;;;;;5046769;28;20542;-83
2023/08/05 05:48:42;;;;;;;0.50;0.40;;;15.70;99.90;;;;;;5045312;28;20444;-82
2023/08/05 05:51:08;;;;;;;0.50;0.40;;;15.70;99.90;;;;;;5045204;28;20445;-82
2023/08/05 05:53:35;;;;;;;0.50;0.40;;;15.80;99.90;;;;;;5047865;28;20454;-83
2023/08/05 05:56:02;;;;;;;0.60;0.60;;;15.90;99.90;;;;;;5048981;28;20548;-83
2023/08/05 05:58:29;;;;;;;0.50;0.40;;;15.90;99.90;;;;;;5045566;28;20459;-82
2023/08/05 06:00:58;;;;;;;0.50;0.40;;;16.10;99.90;;;;;;5045951;28;20455;-82
2023/08/05 06:03:24;;;;;;;1.27;0.80;;;16.30;99.90;;;;;;5048096;28;20480;-82
2023/08/05 06:05:51;;;;;;;0.50;0.40;;;16.70;99.90;;;;;;5009516;28;1123701;-83
2023/08/05 06:08:18;;;;;;;0.50;0.30;;;16.80;99.90;;;;;;5047394;28;20444;-82
2023/08/05 06:10:45;;;;;;;0.50;0.40;;;17.00;99.90;;;;;;5045805;28;20446;-82
2023/08/05 06:13:11;;;;;;;0.50;0.40;;;17.20;99.90;;;;;;5046703;28;20448;-82
2023/08/05 06:15:41;;;;;;;0.80;0.77;;;17.20;99.90;;;;;;5049400;28;20458;-82
2023/08/05 06:18:10;;;;;;;2.40;2.20;;;17.20;99.90;;;;;;5047941;28;20441;-82
2023/08/05 06:20:37;;;;;;;0.50;0.40;;;17.20;99.90;;;;;;5046162;28;20441;-82
2023/08/05 06:23:06;;;;;;;0.60;0.60;;;16.90;99.90;;;;;;5046695;28;20856;-83
2023/08/05 06:25:33;;;;;;;2.07;1.10;;;16.90;99.90;;;;;;5038289;28;20468;-83
2023/08/05 06:27:59;;;;;;;0.60;0.53;;;17.00;99.90;;;;;;5046438;28;20488;-83
2023/08/05 06:30:26;;;;;;;2.37;2.27;;;17.10;99.90;;;;;;5049083;28;20432;-82
2023/08/05 06:32:53;;;;;;;1.13;1.13;;;17.10;99.90;;;;;;5049471;28;20436;-82
2023/08/05 06:35:21;;;;;;;1.27;1.17;;;17.10;99.90;;;;;;5046978;28;20841;-83
2023/08/05 06:37:48;;;;;;;0.53;0.53;;;17.00;99.90;;;;;;5045882;28;20441;-83
2023/08/05 06:40:15;;;;;;;0.50;0.30;;;17.10;99.90;;;;;;5046567;28;20447;-83
2023/08/05 06:42:42;;;;;;;0.50;0.40;;;17.10;99.90;;;;;;5048480;28;20448;-82
2023/08/05 06:45:09;;;;;;;0.50;0.50;;;17.20;99.90;;;;;;5047023;28;20488;-83
2023/08/05 06:47:36;;;;;;;0.50;0.30;;;17.40;99.90;;;;;;5045465;28;20950;-83
2023/08/05 06:50:06;;;;;;;0.50;0.40;;;17.80;99.90;;;;;;5045523;28;20817;-82
2023/08/05 06:52:34;;;;;;;0.50;0.30;;;18.00;99.90;;;;;;5037124;28;20544;-83
2023/08/05 06:55:02;;;;;;;6.33;1.53;;;17.80;99.90;;;;;;5043542;28;20456;-83
2023/08/05 06:57:29;;;;;;;0.50;0.40;;;18.00;99.90;;;;;;5047647;28;20436;-82
2023/08/05 06:59:56;;;;;;;0.53;0.47;;;18.10;99.90;;;;;;5048571;28;20443;-83
2023/08/05 07:02:23;;;;;;;3.17;1.90;;;18.40;99.90;;;;;;5046208;28;20443;-83
2023/08/05 07:04:49;;;;;;;0.50;0.30;;;18.50;99.90;;;;;;5043959;28;20502;-82
2023/08/05 07:07:16;;;;;;;0.50;0.37;;;18.70;99.90;;;;;;5044703;28;20449;-83
2023/08/05 07:09:45;;;;;;;1.07;0.93;;;19.10;99.90;;;;;;5047562;28;20445;-83
2023/08/05 07:12:11;;;;;;;0.50;0.30;;;19.40;99.90;;;;;;5044560;28;20500;-82
2023/08/05 07:14:39;;;;;;;0.50;0.40;;;20.00;99.90;;;;;;5041655;28;20433;-83
2023/08/05 07:17:07;;;;;;;0.50;0.50;;;20.20;99.90;;;;;;5043322;28;20475;-82
2023/08/05 07:19:34;;;;;;;0.50;0.30;;;20.30;99.90;;;;;;5046257;28;20475;-82
2023/08/05 07:22:00;;;;;;;0.50;0.30;;;20.30;99.90;;;;;;5045714;28;20455;-82
2023/08/05 07:24:27;;;;;;;2.20;2.10;;;20.50;99.90;;;;;;5047058;28;20480;-82
2023/08/05 07:26:55;;;;;;;6.57;2.40;;;20.20;99.90;;;;;;5048930;28;20454;-82
2023/08/05 07:29:22;;;;;;;0.50;0.50;;;19.90;99.90;;;;;;5047348;28;20447;-81
2023/08/05 07:31:49;;;;;;;0.83;0.60;;;19.90;99.90;;;;;;5046379;28;20444;-82
2023/08/05 07:34:15;;;;;;;0.50;0.30;;;20.20;99.90;;;;;;5045642;28;20441;-82
2023/08/05 07:36:43;;;;;;;0.87;0.87;;;20.20;99.90;;;;;;5049116;28;20451;-82
2023/08/05 07:39:10;;;;;;;0.83;0.77;;;20.00;99.90;;;;;;5049168;28;20444;-83
2023/08/05 07:41:37;;;;;;;0.50;0.40;;;19.90;99.90;;;;;;5037003;28;20512;-82
2023/08/05 07:44:07;;;;;;;0.50;0.40;;;19.80;99.90;;;;;;5044684;28;20475;-82
2023/08/05 07:46:36;;;;;;;0.87;0.70;;;19.70;99.90;;;;;;5044542;28;20484;-83
2023/08/05 07:49:03;;;;;;;2.50;1.90;;;19.80;99.90;;;;;;5045472;28;20447;-82
2023/08/05 07:51:31;;;;;;;2.60;2.50;;;20.10;99.90;;;;;;5047689;28;20449;-82
2023/08/05 07:53:58;;;;;;;0.70;0.70;;;20.80;99.90;;;;;;5049180;28;20833;-82
2023/08/05 07:56:25;;;;;;;0.77;0.77;;;21.40;99.90;;;;;;5047601;28;20840;-82
2023/08/05 07:58:52;;;;;;;2.63;2.43;;;21.50;99.90;;;;;;5045216;28;20483;-82
2023/08/05 08:01:22;;;;;;;0.50;0.40;;;21.50;99.90;;;;;;5045978;28;20447;-83
2023/08/05 08:03:51;;;;;;;0.80;0.80;;;21.40;99.90;;;;;;5049207;28;20476;-82
2023/08/05 08:06:19;;;;;;;0.50;0.40;;;22.10;99.90;;;;;;5047220;28;20891;-82
2023/08/05 08:08:46;;;;;;;1.10;0.93;;;22.10;99.90;;;;;;5044463;28;20874;-82
2023/08/05 08:11:13;;;;;;;0.50;0.33;;;22.70;99.90;;;;;;5045179;28;20441;-83
2023/08/05 08:13:40;;;;;;;0.70;0.70;;;23.20;99.90;;;;;;5049118;28;20432;-83
2023/08/05 08:16:08;;;;;;;4.00;2.43;;;23.70;99.90;;;;;;5047328;28;20468;-82
2023/08/05 08:18:36;;;;;;;1.83;1.37;;;23.70;99.90;;;;;;5045865;28;20523;-83
2023/08/05 08:21:03;;;;;;;0.50;0.50;;;23.90;99.90;;;;;;5044718;28;20440;-83
2023/08/05 08:23:30;;;;;;;0.50;0.40;;;24.00;99.90;;;;;;5047668;28;20441;-80
2023/08/05 08:25:58;;;;;;;0.50;0.30;;;24.10;99.90;;;;;;5043297;28;20456;-83
2023/08/05 08:28:25;;;;;;;0.53;0.43;;;24.10;99.90;;;;;;5047275;28;20526;-81
2023/08/05 08:30:53;;;;;;;0.50;0.40;;;24.70;99.90;;;;;;5049681;28;20448;-80
2023/08/05 08:33:20;;;;;;;0.50;0.40;;;24.90;99.90;;;;;;5050094;28;20452;-80
2023/08/05 08:35:49;;;;;;;0.50;0.50;;;24.90;99.90;;;;;;5044256;28;20469;-82
2023/08/05 08:38:15;;;;;;;0.50;0.40;;;25.20;99.90;;;;;;5046307;28;20444;-80
2023/08/05 08:40:48;;;;;;;0.50;0.40;;;25.40;99.90;;;;;;5049030;28;20446;-82
2023/08/05 08:43:18;;;;;;;0.60;0.50;;;25.50;99.90;;;;;;5047999;28;20447;-81
2023/08/05 08:45:46;;;;;;;3.37;1.90;;;26.30;99.90;;;;;;5036153;28;20492;-82
2023/08/05 08:48:15;;;;;;;0.60;0.60;;;26.20;99.90;;;;;;5043861;28;20445;-82
2023/08/05 08:50:43;;;;;;;0.60;0.50;;;25.30;99.90;;;;;;5047142;28;20473;-82
2023/08/05 08:53:13;;;;;;;0.50;0.40;;;25.70;99.90;;;;;;5050367;28;20525;-82
2023/08/05 08:55:41;;;;;;;0.50;0.30;;;25.60;99.90;;;;;;5043654;28;20958;-82
2023/08/05 08:58:08;;;;;;;0.50;0.40;;;25.20;99.90;;;;;;5043708;28;20456;-81
2023/08/05 09:00:36;;;;;;;0.50;0.30;;;24.80;99.90;;;;;;5045734;28;20956;-81
2023/08/05 09:03:05;;;;;;;0.50;0.40;;;25.30;99.90;;;;;;5047746;28;20444;-81
2023/08/05 09:05:35;;;;;;;0.60;0.50;;;25.90;99.90;;;;;;5045235;28;20483;-82
2023/08/05 09:08:03;;;;;;;0.50;0.30;;;25.90;99.90;;;;;;5043976;28;20447;-83
2023/08/05 09:10:32;;;;;;;0.50;0.30;;;25.70;99.90;;;;;;5046901;28;20950;-83
2023/08/05 09:13:00;;;;;;;0.50;0.40;;;26.30;99.90;;;;;;5047946;28;20439;-82
2023/08/05 09:15:33;;;;;;;0.50;0.30;;;27.10;99.90;;;;;;5046249;28;20973;-82
2023/08/05 09:18:00;;;;;;;0.60;0.60;;;27.80;99.90;;;;;;5044547;28;20441;-82
2023/08/05 09:20:27;;;;;;;0.50;0.30;;;27.30;99.90;;;;;;5044751;28;20445;-80
2023/08/05 09:22:55;;;;;;;0.50;0.40;;;26.10;99.90;;;;;;5047372;28;20444;-80
2023/08/05 09:25:23;;;;;;;0.50;0.30;;;25.30;99.90;;;;;;5046948;28;20507;-80
2023/08/05 09:27:52;;;;;;;0.50;0.40;;;24.70;99.90;;;;;;5036152;28;20447;-81
2023/08/05 09:30:21;;;;;;;0.50;0.40;;;25.40;99.90;;;;;;5044137;28;20441;-81
2023/08/05 09:32:48;;;;;;;0.50;0.30;;;26.50;99.90;;;;;;5046937;28;20452;-81
2023/08/05 09:35:15;;;;;;;1.10;1.00;;;27.00;99.90;;;;;;5040406;28;20457;-81
2023/08/05 09:37:46;;;;;;;0.50;0.30;;;26.60;98.70;;;;;;5046054;28;21036;-82
2023/08/05 09:40:18;;;;;;;0.50;0.40;;;26.00;99.90;;;;;;5046454;28;20833;-81
2023/08/05 09:42:59;;;;;;;0.50;0.30;;;26.30;99.90;;;;;;5044230;28;20444;-80
2023/08/05 09:45:28;;;;;;;0.50;0.30;;;27.10;99.90;;;;;;5042953;28;20488;-83
2023/08/05 09:48:03;;;;;;;0.80;0.80;;;27.00;99.90;;;;;;5047198;28;20500;-81
2023/08/05 09:50:31;;;;;;;0.50;0.30;;;27.50;98.10;;;;;;5039124;28;20447;-81
2023/08/05 09:53:00;;;;;;;0.97;0.50;;;27.40;97.70;;;;;;5047140;28;20440;-81
2023/08/05 09:55:27;;;;;;;0.50;0.30;;;26.30;95.70;;;;;;5046335;28;20471;-80
2023/08/05 09:57:56;;;;;;;0.50;0.50;;;26.50;97.20;;;;;;5048773;28;20457;-81
2023/08/05 10:00:24;;;;;;;0.50;0.30;;;26.70;96.20;;;;;;5044402;28;20492;-80
2023/08/05 10:02:52;;;;;;;0.80;0.80;;;26.60;96.60;;;;;;5043265;28;20491;-81
2023/08/05 10:05:19;;;;;;;0.50;0.30;;;26.80;95.50;;;;;;5042516;28;20488;-81
2023/08/05 10:07:46;;;;;;;10.43;0.97;;;26.40;97.40;;;;;;5043377;28;20484;-80
2023/08/05 10:10:16;;;;;;;0.70;0.70;;;25.90;98.10;;;;;;5043863;28;20449;-80
2023/08/05 10:12:47;;;;;;;0.50;0.40;;;25.50;98.60;;;;;;5045081;28;20548;-81
2023/08/05 10:15:22;;;;;;;0.50;0.40;;;25.20;99.90;;;;;;5046450;28;20496;-83
2023/08/05 10:17:49;;;;;;;0.50;0.30;;;24.90;99.90;;;;;;5042900;28;20437;-81
2023/08/05 10:20:16;;;;;;;0.63;0.60;;;25.70;99.90;;;;;;5043190;28;20449;-80
2023/08/05 10:23:01;;;;;;;0.50;0.40;;;25.40;98.40;;;;;;5045043;28;20437;-81
2023/08/05 10:25:39;;;;;;;0.60;0.53;;;24.60;99.90;;;;;;5045743;28;20534;-81
2023/08/05 10:28:06;;;;;;;1.00;0.57;;;25.10;99.90;;;;;;5042908;28;20448;-81
2023/08/05 10:30:41;;;;;;;0.50;0.40;;;25.00;99.90;;;;;;5043435;28;20448;-81
2023/08/05 10:33:08;;;;;;;0.50;0.40;;;24.50;99.90;;;;;;5039931;28;20454;-81
2023/08/05 10:35:39;;;;;;;0.50;0.40;;;25.50;99.90;;;;;;5042856;28;20463;-81
2023/08/05 10:38:13;;;;;;;0.50;0.30;;;26.60;99.90;;;;;;5046322;28;20812;-81
2023/08/05 10:40:48;;;;;;;0.50;0.30;;;26.90;95.20;;;;;;5046205;28;20501;-81
2023/08/05 10:43:28;;;;;;;0.50;0.30;;;26.70;96.80;;;;;;5046257;28;20813;-81
2023/08/05 10:45:56;;;;;;;0.50;0.47;;;26.80;97.40;;;;;;5034869;28;20530;-81
2023/08/05 10:48:30;;;;;;;0.50;0.30;;;26.60;94.30;;;;;;5042362;28;20445;-80
2023/08/05 10:50:58;;;;;;;0.60;0.53;;;25.30;96.80;;;;;;5034288;28;20448;-80
2023/08/05 10:53:25;;;;;;;0.50;0.40;;;25.40;98.50;;;;;;5049298;28;20452;-81
2023/08/05 10:55:57;;;;;;;0.50;0.40;;;25.40;99.40;;;;;;5041794;28;20855;-80
2023/08/05 10:58:24;;;;;;;0.50;0.40;;;25.40;98.30;;;;;;5041578;28;20469;-80
2023/08/05 11:01:00;;;;;;;0.50;0.40;;;25.20;97.70;;;;;;5044384;28;20449;-80
2023/08/05 11:03:40;;;;;;;0.70;0.60;;;25.10;98.70;;;;;;5043565;28;20470;-80
2023/08/05 11:06:07;;;;;;;0.50;0.30;;;24.60;98.40;;;;;;5033888;28;21047;-82
2023/08/05 11:08:35;;;;;;;0.50;0.40;;;24.50;99.90;;;;;;5040376;28;20445;-80
2023/08/05 11:11:03;;;;;;;0.50;0.30;;;24.50;99.90;;;;;;5043797;28;20447;-80
2023/08/05 11:13:34;;;;;;;0.50;0.30;;;24.60;99.90;;;;;;5035306;28;20453;-80
2023/08/05 11:16:04;;;;;;;0.50;0.40;;;24.60;99.90;;;;;;5040351;28;20460;-81
2023/08/05 11:18:31;;;;;;;2.40;1.20;;;24.50;99.90;;;;;;5042263;28;20524;-80
2023/08/05 11:20:59;;;;;;;3.67;3.40;;;24.50;99.90;;;;;;5032060;28;20916;-80
2023/08/05 11:23:26;;;;;;;0.50;0.30;;;24.20;99.90;;;;;;5040530;28;20455;-82
2023/08/05 11:25:54;;;;;;;0.50;0.40;;;24.40;99.90;;;;;;5042213;28;20487;-80
2023/08/05 11:28:21;;;;;;;0.50;0.40;;;24.40;99.90;;;;;;5046497;28;20455;-81
2023/08/05 11:30:48;;;;;;;0.50;0.50;;;24.10;99.90;;;;;;5035042;28;20887;-80
2023/08/05 11:33:16;;;;;;;0.50;0.40;;;23.80;99.90;;;;;;5043610;28;20445;-81
2023/08/05 11:35:45;;;;;;;0.60;0.43;;;23.80;99.90;;;;;;5041393;28;20883;-80
2023/08/05 11:38:12;;;;;;;1.17;0.83;;;24.00;99.90;;;;;;5039853;28;20905;-81
2023/08/05 11:40:43;;;;;;;0.50;0.40;;;23.80;99.90;;;;;;5041477;28;20448;-81
2023/08/05 11:43:11;;;;;;;0.50;0.30;;;24.00;99.90;;;;;;5042925;28;20447;-82
2023/08/05 11:45:39;;;;;;;0.50;0.40;;;23.90;99.90;;;;;;5042306;28;20487;-80
2023/08/05 11:48:07;;;;;;;0.50;0.40;;;23.60;99.90;;;;;;5040686;28;20467;-80
2023/08/05 11:50:36;;;;;;;0.80;0.50;;;23.10;99.90;;;;;;5039392;28;20964;-80
2023/08/05 11:53:04;;;;;;;0.50;0.40;;;22.80;99.90;;;;;;5035648;28;20453;-81
2023/08/05 11:55:35;;;;;;;0.50;0.40;;;22.70;99.90;;;;;;5043217;28;20460;-81
2023/08/05 11:58:03;;;;;;;0.50;0.40;;;22.50;99.90;;;;;;5031810;28;20876;-81
2023/08/05 12:00:30;;;;;;;0.50;0.40;;;22.50;99.90;;;;;;5040028;28;20786;-80
2023/08/05 12:02:57;;;;;;;0.50;0.40;;;22.60;99.90;;;;;;5031650;28;20467;-79
2023/08/05 12:05:23;;;;;;;0.50;0.40;;;22.50;99.90;;;;;;5033944;28;20491;-80
2023/08/05 12:07:52;;;;;;;0.50;0.40;;;22.30;99.90;;;;;;5033255;28;20452;-79
2023/08/05 12:10:20;;;;;;;0.50;0.30;;;22.40;99.90;;;;;;5035089;28;20444;-79
2023/08/05 12:12:48;;;;;;;0.77;0.60;;;22.50;99.90;;;;;;5042590;28;20630;-79
2023/08/05 12:15:17;;;;;;;1.10;0.73;;;22.70;99.90;;;;;;5043465;28;20457;-81
2023/08/05 12:17:48;;;;;;;0.50;0.40;;;22.70;99.90;;;;;;5044654;28;20448;-79
2023/08/05 12:20:18;;;;;;;0.50;0.30;;;22.80;99.90;;;;;;5046868;28;20491;-80
2023/08/05 12:22:45;;;;;;;0.50;0.40;;;23.10;99.90;;;;;;5032536;28;21031;-80
2023/08/05 12:25:14;;;;;;;0.50;0.30;;;24.00;99.90;;;;;;5030600;28;20483;-81
2023/08/05 12:27:41;;;;;;;0.50;0.37;;;24.60;99.90;;;;;;5051926;28;20522;-81
2023/08/05 12:30:09;;;;;;;0.50;0.33;;;25.30;99.90;;;;;;5052997;28;20441;-81
2023/08/05 12:32:36;;;;;;;0.50;0.40;;;25.40;99.90;;;;;;5052835;28;20444;-80
2023/08/05 12:35:03;;;;;;;0.50;0.30;;;25.70;99.90;;;;;;5034061;28;20471;-81
2023/08/05 12:37:30;;;;;;;0.50;0.30;;;26.00;99.90;;;;;;5044359;28;20450;-82
2023/08/05 12:39:57;;;;;;;0.50;0.30;;;26.60;98.40;;;;;;5048206;28;20448;-82
2023/08/05 12:42:25;;;;;;;0.50;0.30;;;26.60;97.80;;;;;;5046601;28;20455;-80
2023/08/05 12:44:52;;;;;;;0.50;0.30;;;27.00;95.60;;;;;;5045138;28;20478;-82
2023/08/05 12:47:20;;;;;;;0.50;0.30;;;27.00;93.30;;;;;;5047516;28;20448;-82